Terminal Aerodrome Forecast
Issued by NWS Omaha/Valley, NE

Home | Current Version | Previous Version | Graphics & Text | Print | Product List | Glossary On
Versions: 1 2 3 4 5 6 7 8 9 10 11 12 13 14 15 16 17 18 19 20 21 22 23 24 25 26 27 28 29 30 31 32 33 34 35 36 37 38 39 40 41 42 43 44 45 46 47
000
FTUS43 KOAX 251900 AAA
TAFOFK
TAF AMD
KOFK 251900Z 2519/2618 02015KT P6SM OVC005
      TEMPO 2519/2521 4SM BR
     FM260200 03006KT P6SM OVC003
     FM260600 01006KT 1SM BR OVC002
     FM261500 02004KT 5SM BR OVC003=

USA.gov is the U.S. government's official web portal to all federal, state and local government web resources and services.